sensor_id;sensor_type;location;lat;lon;timestamp;P1;durP1;ratioP1;P2;durP2;ratioP2
22955;SDS011;40888;48.148;11.526;2023-05-07T00:00:19;9.90;;;8.33;;
22955;SDS011;40888;48.148;11.526;2023-05-07T00:02:45;9.07;;;7.53;;
22955;SDS011;40888;48.148;11.526;2023-05-07T00:05:12;8.27;;;7.10;;
22955;SDS011;40888;48.148;11.526;2023-05-07T00:07:39;7.23;;;6.53;;
22955;SDS011;40888;48.148;11.526;2023-05-07T00:10:05;10.00;;;7.37;;
22955;SDS011;40888;48.148;11.526;2023-05-07T00:12:32;10.63;;;6.83;;
22955;SDS011;40888;48.148;11.526;2023-05-07T00:15:03;10.00;;;7.77;;
22955;SDS011;40888;48.148;11.526;2023-05-07T00:17:30;9.93;;;7.37;;
22955;SDS011;40888;48.148;11.526;2023-05-07T00:19:57;9.37;;;7.10;;
22955;SDS011;40888;48.148;11.526;2023-05-07T00:22:24;9.53;;;7.40;;
22955;SDS011;40888;48.148;11.526;2023-05-07T00:24:50;8.83;;;6.97;;
22955;SDS011;40888;48.148;11.526;2023-05-07T00:27:16;8.40;;;7.33;;
22955;SDS011;40888;48.148;11.526;2023-05-07T00:29:41;10.10;;;8.07;;
22955;SDS011;40888;48.148;11.526;2023-05-07T00:32:07;9.30;;;8.10;;
22955;SDS011;40888;48.148;11.526;2023-05-07T00:34:34;9.30;;;8.03;;
22955;SDS011;40888;48.148;11.526;2023-05-07T00:37:00;10.00;;;8.43;;
22955;SDS011;40888;48.148;11.526;2023-05-07T00:39:26;11.10;;;7.50;;
22955;SDS011;40888;48.148;11.526;2023-05-07T00:41:52;7.07;;;6.37;;
22955;SDS011;40888;48.148;11.526;2023-05-07T00:44:18;9.17;;;6.90;;
22955;SDS011;40888;48.148;11.526;2023-05-07T00:46:44;8.97;;;6.63;;
22955;SDS011;40888;48.148;11.526;2023-05-07T00:49:10;9.37;;;8.33;;
22955;SDS011;40888;48.148;11.526;2023-05-07T00:51:36;8.77;;;7.73;;
22955;SDS011;40888;48.148;11.526;2023-05-07T00:54:02;11.13;;;8.00;;
22955;SDS011;40888;48.148;11.526;2023-05-07T00:56:28;10.33;;;9.33;;
22955;SDS011;40888;48.148;11.526;2023-05-07T00:58:54;9.77;;;8.27;;
22955;SDS011;40888;48.148;11.526;2023-05-07T01:01:20;10.97;;;9.07;;
22955;SDS011;40888;48.148;11.526;2023-05-07T01:03:46;10.70;;;9.23;;
22955;SDS011;40888;48.148;11.526;2023-05-07T01:06:12;10.47;;;9.33;;
22955;SDS011;40888;48.148;11.526;2023-05-07T01:08:39;10.93;;;9.30;;
22955;SDS011;40888;48.148;11.526;2023-05-07T01:11:06;9.47;;;8.47;;
22955;SDS011;40888;48.148;11.526;2023-05-07T01:13:33;11.57;;;8.93;;
22955;SDS011;40888;48.148;11.526;2023-05-07T01:16:00;10.53;;;9.07;;
22955;SDS011;40888;48.148;11.526;2023-05-07T01:18:25;12.30;;;9.17;;
22955;SDS011;40888;48.148;11.526;2023-05-07T01:20:52;14.67;;;10.13;;
22955;SDS011;40888;48.148;11.526;2023-05-07T01:23:17;12.63;;;9.90;;
22955;SDS011;40888;48.148;11.526;2023-05-07T01:25:50;10.80;;;9.67;;
22955;SDS011;40888;48.148;11.526;2023-05-07T01:28:20;11.77;;;9.63;;
22955;SDS011;40888;48.148;11.526;2023-05-07T01:30:47;10.30;;;8.83;;
22955;SDS011;40888;48.148;11.526;2023-05-07T01:33:21;11.23;;;8.90;;
22955;SDS011;40888;48.148;11.526;2023-05-07T01:35:48;10.60;;;9.50;;
22955;SDS011;40888;48.148;11.526;2023-05-07T01:38:16;11.30;;;9.23;;
22955;SDS011;40888;48.148;11.526;2023-05-07T01:40:42;12.03;;;9.77;;
22955;SDS011;40888;48.148;11.526;2023-05-07T01:43:08;9.73;;;8.33;;
22955;SDS011;40888;48.148;11.526;2023-05-07T01:45:35;10.73;;;8.83;;
22955;SDS011;40888;48.148;11.526;2023-05-07T01:48:02;10.23;;;8.13;;
22955;SDS011;40888;48.148;11.526;2023-05-07T01:50:28;9.80;;;8.80;;
22955;SDS011;40888;48.148;11.526;2023-05-07T01:52:54;11.07;;;8.20;;
22955;SDS011;40888;48.148;11.526;2023-05-07T01:55:20;10.17;;;8.80;;
22955;SDS011;40888;48.148;11.526;2023-05-07T01:57:46;11.77;;;9.73;;
22955;SDS011;40888;48.148;11.526;2023-05-07T02:00:12;13.57;;;11.63;;
22955;SDS011;40888;48.148;11.526;2023-05-07T02:02:38;11.43;;;10.23;;
22955;SDS011;40888;48.148;11.526;2023-05-07T02:05:04;15.73;;;11.53;;
22955;SDS011;40888;48.148;11.526;2023-05-07T02:07:30;12.90;;;10.17;;
22955;SDS011;40888;48.148;11.526;2023-05-07T02:09:56;9.30;;;7.67;;
22955;SDS011;40888;48.148;11.526;2023-05-07T02:12:22;11.23;;;7.83;;
22955;SDS011;40888;48.148;11.526;2023-05-07T02:14:48;13.87;;;11.47;;
22955;SDS011;40888;48.148;11.526;2023-05-07T02:17:14;15.00;;;11.53;;
22955;SDS011;40888;48.148;11.526;2023-05-07T02:19:40;14.97;;;10.10;;
22955;SDS011;40888;48.148;11.526;2023-05-07T02:22:06;12.03;;;9.93;;
22955;SDS011;40888;48.148;11.526;2023-05-07T02:24:32;15.40;;;11.33;;
22955;SDS011;40888;48.148;11.526;2023-05-07T02:26:58;13.53;;;11.90;;
22955;SDS011;40888;48.148;11.526;2023-05-07T02:29:23;12.60;;;11.30;;
22955;SDS011;40888;48.148;11.526;2023-05-07T02:31:49;11.63;;;8.90;;
22955;SDS011;40888;48.148;11.526;2023-05-07T02:34:18;14.50;;;10.70;;
22955;SDS011;40888;48.148;11.526;2023-05-07T02:36:44;12.10;;;10.60;;
22955;SDS011;40888;48.148;11.526;2023-05-07T02:39:11;10.63;;;9.60;;
22955;SDS011;40888;48.148;11.526;2023-05-07T02:41:37;11.30;;;10.07;;
22955;SDS011;40888;48.148;11.526;2023-05-07T02:44:03;12.80;;;10.77;;
22955;SDS011;40888;48.148;11.526;2023-05-07T02:46:29;15.07;;;10.63;;
22955;SDS011;40888;48.148;11.526;2023-05-07T02:48:55;10.17;;;8.73;;
22955;SDS011;40888;48.148;11.526;2023-05-07T02:51:21;10.27;;;7.60;;
22955;SDS011;40888;48.148;11.526;2023-05-07T02:53:47;7.10;;;6.40;;
22955;SDS011;40888;48.148;11.526;2023-05-07T02:56:13;7.23;;;6.50;;
22955;SDS011;40888;48.148;11.526;2023-05-07T02:58:39;9.50;;;6.60;;
22955;SDS011;40888;48.148;11.526;2023-05-07T03:01:05;7.77;;;6.90;;
22955;SDS011;40888;48.148;11.526;2023-05-07T03:03:31;7.10;;;6.37;;
22955;SDS011;40888;48.148;11.526;2023-05-07T03:05:57;8.57;;;7.53;;
22955;SDS011;40888;48.148;11.526;2023-05-07T03:08:24;10.03;;;8.80;;
22955;SDS011;40888;48.148;11.526;2023-05-07T03:10:50;7.97;;;7.17;;
22955;SDS011;40888;48.148;11.526;2023-05-07T03:13:16;9.53;;;6.70;;
22955;SDS011;40888;48.148;11.526;2023-05-07T03:15:42;9.87;;;6.97;;
22955;SDS011;40888;48.148;11.526;2023-05-07T03:18:08;9.67;;;6.87;;
22955;SDS011;40888;48.148;11.526;2023-05-07T03:20:33;9.77;;;6.87;;
22955;SDS011;40888;48.148;11.526;2023-05-07T03:22:59;9.93;;;6.83;;
22955;SDS011;40888;48.148;11.526;2023-05-07T03:25:25;9.17;;;6.73;;
22955;SDS011;40888;48.148;11.526;2023-05-07T03:27:51;7.10;;;6.40;;
22955;SDS011;40888;48.148;11.526;2023-05-07T03:30:17;6.57;;;5.87;;
22955;SDS011;40888;48.148;11.526;2023-05-07T03:32:42;8.80;;;5.90;;
22955;SDS011;40888;48.148;11.526;2023-05-07T03:35:08;6.73;;;5.40;;
22955;SDS011;40888;48.148;11.526;2023-05-07T03:37:34;6.17;;;5.57;;
22955;SDS011;40888;48.148;11.526;2023-05-07T03:40:00;6.13;;;5.53;;
22955;SDS011;40888;48.148;11.526;2023-05-07T03:42:25;6.40;;;5.80;;
22955;SDS011;40888;48.148;11.526;2023-05-07T03:44:51;7.27;;;5.83;;
22955;SDS011;40888;48.148;11.526;2023-05-07T03:47:17;6.87;;;6.13;;
22955;SDS011;40888;48.148;11.526;2023-05-07T03:49:42;6.80;;;5.87;;
22955;SDS011;40888;48.148;11.526;2023-05-07T03:52:08;8.37;;;6.73;;
22955;SDS011;40888;48.148;11.526;2023-05-07T03:54:34;9.07;;;7.90;;
22955;SDS011;40888;48.148;11.526;2023-05-07T03:57:00;8.03;;;6.67;;
22955;SDS011;40888;48.148;11.526;2023-05-07T03:59:25;7.77;;;6.70;;
22955;SDS011;40888;48.148;11.526;2023-05-07T04:01:51;6.83;;;5.97;;
22955;SDS011;40888;48.148;11.526;2023-05-07T04:04:17;7.00;;;6.30;;
22955;SDS011;40888;48.148;11.526;2023-05-07T04:06:43;7.27;;;5.60;;
22955;SDS011;40888;48.148;11.526;2023-05-07T04:09:08;6.87;;;6.00;;
22955;SDS011;40888;48.148;11.526;2023-05-07T04:11:35;6.80;;;6.10;;
22955;SDS011;40888;48.148;11.526;2023-05-07T04:14:01;7.33;;;6.63;;
22955;SDS011;40888;48.148;11.526;2023-05-07T04:16:26;6.40;;;5.80;;
22955;SDS011;40888;48.148;11.526;2023-05-07T04:18:52;6.53;;;5.60;;
22955;SDS011;40888;48.148;11.526;2023-05-07T04:21:19;9.07;;;7.37;;
22955;SDS011;40888;48.148;11.526;2023-05-07T04:23:46;8.97;;;7.30;;
22955;SDS011;40888;48.148;11.526;2023-05-07T04:26:13;5.97;;;5.37;;
22955;SDS011;40888;48.148;11.526;2023-05-07T04:28:39;8.63;;;7.20;;
22955;SDS011;40888;48.148;11.526;2023-05-07T04:31:05;8.80;;;5.70;;
22955;SDS011;40888;48.148;11.526;2023-05-07T04:33:31;5.77;;;5.20;;
22955;SDS011;40888;48.148;11.526;2023-05-07T04:35:58;7.47;;;5.50;;
22955;SDS011;40888;48.148;11.526;2023-05-07T04:38:31;6.23;;;5.57;;
22955;SDS011;40888;48.148;11.526;2023-05-07T04:40:57;6.73;;;6.03;;
22955;SDS011;40888;48.148;11.526;2023-05-07T04:43:27;7.10;;;6.40;;
22955;SDS011;40888;48.148;11.526;2023-05-07T04:45:53;10.57;;;6.90;;
22955;SDS011;40888;48.148;11.526;2023-05-07T04:48:18;8.53;;;6.10;;
22955;SDS011;40888;48.148;11.526;2023-05-07T04:50:49;6.23;;;5.60;;
22955;SDS011;40888;48.148;11.526;2023-05-07T04:53:15;9.53;;;7.57;;
22955;SDS011;40888;48.148;11.526;2023-05-07T04:55:42;8.03;;;7.27;;
22955;SDS011;40888;48.148;11.526;2023-05-07T04:58:08;8.73;;;7.30;;
22955;SDS011;40888;48.148;11.526;2023-05-07T05:00:34;12.73;;;8.63;;
22955;SDS011;40888;48.148;11.526;2023-05-07T05:03:00;7.00;;;6.17;;
22955;SDS011;40888;48.148;11.526;2023-05-07T05:05:26;6.57;;;5.87;;
22955;SDS011;40888;48.148;11.526;2023-05-07T05:07:51;6.20;;;5.03;;
22955;SDS011;40888;48.148;11.526;2023-05-07T05:10:18;6.27;;;5.67;;
22955;SDS011;40888;48.148;11.526;2023-05-07T05:12:43;7.00;;;6.23;;
22955;SDS011;40888;48.148;11.526;2023-05-07T05:15:11;7.37;;;6.20;;
22955;SDS011;40888;48.148;11.526;2023-05-07T05:17:38;10.10;;;7.53;;
22955;SDS011;40888;48.148;11.526;2023-05-07T05:20:04;9.43;;;6.37;;
22955;SDS011;40888;48.148;11.526;2023-05-07T05:22:32;7.50;;;6.70;;
22955;SDS011;40888;48.148;11.526;2023-05-07T05:24:59;8.57;;;7.53;;
22955;SDS011;40888;48.148;11.526;2023-05-07T05:27:25;7.43;;;6.73;;
22955;SDS011;40888;48.148;11.526;2023-05-07T05:29:51;6.40;;;5.30;;
22955;SDS011;40888;48.148;11.526;2023-05-07T05:32:17;8.37;;;4.87;;
22955;SDS011;40888;48.148;11.526;2023-05-07T05:34:43;5.70;;;5.10;;
22955;SDS011;40888;48.148;11.526;2023-05-07T05:37:08;5.20;;;4.70;;
22955;SDS011;40888;48.148;11.526;2023-05-07T05:39:34;5.40;;;4.90;;
22955;SDS011;40888;48.148;11.526;2023-05-07T05:42:00;6.13;;;5.47;;
22955;SDS011;40888;48.148;11.526;2023-05-07T05:44:26;8.37;;;6.53;;
22955;SDS011;40888;48.148;11.526;2023-05-07T05:46:52;5.90;;;5.30;;
22955;SDS011;40888;48.148;11.526;2023-05-07T05:49:20;5.97;;;4.57;;
22955;SDS011;40888;48.148;11.526;2023-05-07T05:51:47;5.97;;;4.37;;
22955;SDS011;40888;48.148;11.526;2023-05-07T05:54:12;7.33;;;5.30;;
22955;SDS011;40888;48.148;11.526;2023-05-07T05:56:38;5.57;;;5.03;;
22955;SDS011;40888;48.148;11.526;2023-05-07T05:59:05;6.60;;;5.03;;
22955;SDS011;40888;48.148;11.526;2023-05-07T06:01:31;6.33;;;5.50;;
22955;SDS011;40888;48.148;11.526;2023-05-07T06:03:57;5.03;;;4.63;;
22955;SDS011;40888;48.148;11.526;2023-05-07T06:06:22;5.33;;;4.83;;
22955;SDS011;40888;48.148;11.526;2023-05-07T06:08:48;6.47;;;5.87;;
22955;SDS011;40888;48.148;11.526;2023-05-07T06:11:14;8.37;;;6.20;;
22955;SDS011;40888;48.148;11.526;2023-05-07T06:13:40;8.57;;;5.37;;
22955;SDS011;40888;48.148;11.526;2023-05-07T06:16:06;8.43;;;5.40;;
22955;SDS011;40888;48.148;11.526;2023-05-07T06:18:32;7.17;;;5.40;;
22955;SDS011;40888;48.148;11.526;2023-05-07T06:20:58;6.63;;;5.27;;
22955;SDS011;40888;48.148;11.526;2023-05-07T06:23:25;6.27;;;5.37;;
22955;SDS011;40888;48.148;11.526;2023-05-07T06:25:51;5.63;;;5.00;;
22955;SDS011;40888;48.148;11.526;2023-05-07T06:30:47;5.80;;;5.23;;
22955;SDS011;40888;48.148;11.526;2023-05-07T06:33:17;7.57;;;4.30;;
22955;SDS011;40888;48.148;11.526;2023-05-07T06:35:43;7.00;;;4.17;;
22955;SDS011;40888;48.148;11.526;2023-05-07T06:38:09;5.83;;;3.90;;
22955;SDS011;40888;48.148;11.526;2023-05-07T06:40:35;5.83;;;4.20;;
22955;SDS011;40888;48.148;11.526;2023-05-07T06:43:01;3.80;;;3.50;;
22955;SDS011;40888;48.148;11.526;2023-05-07T06:45:27;4.07;;;3.57;;
22955;SDS011;40888;48.148;11.526;2023-05-07T06:47:52;4.97;;;4.47;;
22955;SDS011;40888;48.148;11.526;2023-05-07T06:50:18;3.77;;;3.40;;
22955;SDS011;40888;48.148;11.526;2023-05-07T06:52:45;6.17;;;4.13;;
22955;SDS011;40888;48.148;11.526;2023-05-07T06:55:11;4.87;;;4.37;;
22955;SDS011;40888;48.148;11.526;2023-05-07T06:57:37;4.33;;;3.47;;
22955;SDS011;40888;48.148;11.526;2023-05-07T07:00:03;4.65;;;4.25;;
22955;SDS011;40888;48.148;11.526;2023-05-07T07:02:34;5.13;;;4.27;;
22955;SDS011;40888;48.148;11.526;2023-05-07T07:07:32;4.70;;;4.30;;
22955;SDS011;40888;48.148;11.526;2023-05-07T07:10:13;4.25;;;3.95;;
22955;SDS011;40888;48.148;11.526;2023-05-07T07:12:39;4.93;;;4.10;;
22955;SDS011;40888;48.148;11.526;2023-05-07T07:15:17;3.85;;;3.50;;
22955;SDS011;40888;48.148;11.526;2023-05-07T07:17:45;4.75;;;3.85;;
22955;SDS011;40888;48.148;11.526;2023-05-07T07:20:11;4.03;;;3.50;;
22955;SDS011;40888;48.148;11.526;2023-05-07T07:22:37;4.25;;;3.58;;
22955;SDS011;40888;48.148;11.526;2023-05-07T07:25:03;3.70;;;3.20;;
22955;SDS011;40888;48.148;11.526;2023-05-07T07:27:29;4.45;;;3.72;;
22955;SDS011;40888;48.148;11.526;2023-05-07T07:29:55;5.43;;;3.13;;
22955;SDS011;40888;48.148;11.526;2023-05-07T07:32:30;6.60;;;4.32;;
22955;SDS011;40888;48.148;11.526;2023-05-07T07:37:27;3.15;;;2.95;;
22955;SDS011;40888;48.148;11.526;2023-05-07T07:39:53;4.00;;;2.90;;
22955;SDS011;40888;48.148;11.526;2023-05-07T07:42:18;4.70;;;3.25;;
22955;SDS011;40888;48.148;11.526;2023-05-07T07:44:44;4.05;;;3.13;;
22955;SDS011;40888;48.148;11.526;2023-05-07T07:47:10;4.97;;;3.30;;
22955;SDS011;40888;48.148;11.526;2023-05-07T07:49:38;3.83;;;3.28;;
22955;SDS011;40888;48.148;11.526;2023-05-07T07:52:03;4.07;;;3.35;;
22955;SDS011;40888;48.148;11.526;2023-05-07T07:54:29;3.83;;;3.53;;
22955;SDS011;40888;48.148;11.526;2023-05-07T07:56:55;2.90;;;2.63;;
22955;SDS011;40888;48.148;11.526;2023-05-07T07:59:21;3.10;;;2.83;;
22955;SDS011;40888;48.148;11.526;2023-05-07T08:01:46;5.70;;;3.00;;
22955;SDS011;40888;48.148;11.526;2023-05-07T08:04:15;4.78;;;3.17;;
22955;SDS011;40888;48.148;11.526;2023-05-07T08:06:41;4.88;;;3.28;;
22955;SDS011;40888;48.148;11.526;2023-05-07T08:09:07;3.42;;;3.05;;
22955;SDS011;40888;48.148;11.526;2023-05-07T08:11:33;4.95;;;3.83;;
22955;SDS011;40888;48.148;11.526;2023-05-07T08:13:59;3.65;;;3.17;;
22955;SDS011;40888;48.148;11.526;2023-05-07T08:16:26;3.33;;;3.00;;
22955;SDS011;40888;48.148;11.526;2023-05-07T08:18:55;4.15;;;3.75;;
22955;SDS011;40888;48.148;11.526;2023-05-07T08:21:21;3.90;;;3.50;;
22955;SDS011;40888;48.148;11.526;2023-05-07T08:23:48;3.90;;;3.22;;
22955;SDS011;40888;48.148;11.526;2023-05-07T08:26:14;3.70;;;3.33;;
22955;SDS011;40888;48.148;11.526;2023-05-07T08:28:40;3.28;;;2.95;;
22955;SDS011;40888;48.148;11.526;2023-05-07T08:31:06;6.20;;;3.92;;
22955;SDS011;40888;48.148;11.526;2023-05-07T08:33:39;3.60;;;3.20;;
22955;SDS011;40888;48.148;11.526;2023-05-07T08:36:05;4.53;;;4.13;;
22955;SDS011;40888;48.148;11.526;2023-05-07T08:38:33;3.35;;;2.80;;
22955;SDS011;40888;48.148;11.526;2023-05-07T08:40:59;3.65;;;3.08;;
22955;SDS011;40888;48.148;11.526;2023-05-07T08:43:28;4.85;;;2.90;;
22955;SDS011;40888;48.148;11.526;2023-05-07T08:45:58;3.25;;;2.95;;
22955;SDS011;40888;48.148;11.526;2023-05-07T08:48:27;5.85;;;3.10;;
22955;SDS011;40888;48.148;11.526;2023-05-07T08:50:55;4.20;;;2.80;;
22955;SDS011;40888;48.148;11.526;2023-05-07T08:53:22;2.80;;;2.55;;
22955;SDS011;40888;48.148;11.526;2023-05-07T08:55:48;3.92;;;3.53;;
22955;SDS011;40888;48.148;11.526;2023-05-07T08:58:20;6.95;;;3.45;;
22955;SDS011;40888;48.148;11.526;2023-05-07T09:00:47;5.15;;;3.10;;
22955;SDS011;40888;48.148;11.526;2023-05-07T09:03:13;3.47;;;2.85;;
22955;SDS011;40888;48.148;11.526;2023-05-07T09:05:39;4.20;;;3.83;;
22955;SDS011;40888;48.148;11.526;2023-05-07T09:08:05;3.22;;;2.53;;
22955;SDS011;40888;48.148;11.526;2023-05-07T09:10:32;3.90;;;2.90;;
22955;SDS011;40888;48.148;11.526;2023-05-07T09:12:59;3.03;;;2.80;;
22955;SDS011;40888;48.148;11.526;2023-05-07T09:15:25;2.33;;;2.10;;
22955;SDS011;40888;48.148;11.526;2023-05-07T09:17:51;3.28;;;2.90;;
22955;SDS011;40888;48.148;11.526;2023-05-07T09:20:17;3.17;;;2.70;;
22955;SDS011;40888;48.148;11.526;2023-05-07T09:22:43;4.22;;;3.00;;
22955;SDS011;40888;48.148;11.526;2023-05-07T09:25:10;2.70;;;2.50;;
22955;SDS011;40888;48.148;11.526;2023-05-07T09:27:36;2.75;;;2.53;;
22955;SDS011;40888;48.148;11.526;2023-05-07T09:30:03;4.15;;;2.85;;
22955;SDS011;40888;48.148;11.526;2023-05-07T09:32:35;5.78;;;3.10;;
22955;SDS011;40888;48.148;11.526;2023-05-07T09:35:04;2.45;;;2.25;;
22955;SDS011;40888;48.148;11.526;2023-05-07T09:37:31;2.80;;;2.13;;
22955;SDS011;40888;48.148;11.526;2023-05-07T09:39:57;3.60;;;2.60;;
22955;SDS011;40888;48.148;11.526;2023-05-07T09:42:24;15.38;;;2.90;;
22955;SDS011;40888;48.148;11.526;2023-05-07T09:44:51;4.00;;;2.70;;
22955;SDS011;40888;48.148;11.526;2023-05-07T09:47:20;2.50;;;2.30;;
22955;SDS011;40888;48.148;11.526;2023-05-07T09:49:49;6.55;;;3.00;;
22955;SDS011;40888;48.148;11.526;2023-05-07T09:52:16;3.70;;;2.45;;
22955;SDS011;40888;48.148;11.526;2023-05-07T09:54:42;3.13;;;2.58;;
22955;SDS011;40888;48.148;11.526;2023-05-07T09:57:10;3.13;;;2.80;;
22955;SDS011;40888;48.148;11.526;2023-05-07T09:59:38;5.78;;;2.65;;
22955;SDS011;40888;48.148;11.526;2023-05-07T10:04:54;3.92;;;2.63;;
22955;SDS011;40888;48.148;11.526;2023-05-07T10:07:19;4.05;;;3.03;;
22955;SDS011;40888;48.148;11.526;2023-05-07T10:09:46;3.15;;;2.70;;
22955;SDS011;40888;48.148;11.526;2023-05-07T10:12:12;3.42;;;2.50;;
22955;SDS011;40888;48.148;11.526;2023-05-07T10:14:38;4.10;;;2.40;;
22955;SDS011;40888;48.148;11.526;2023-05-07T10:17:05;4.10;;;2.50;;
22955;SDS011;40888;48.148;11.526;2023-05-07T10:19:31;2.90;;;2.30;;
22955;SDS011;40888;48.148;11.526;2023-05-07T10:24:36;3.70;;;2.05;;
22955;SDS011;40888;48.148;11.526;2023-05-07T10:27:10;4.50;;;2.80;;
22955;SDS011;40888;48.148;11.526;2023-05-07T10:35:17;2.00;;;1.70;;
22955;SDS011;40888;48.148;11.526;2023-05-07T10:40:26;2.47;;;2.28;;
22955;SDS011;40888;48.148;11.526;2023-05-07T10:42:58;5.15;;;2.80;;
22955;SDS011;40888;48.148;11.526;2023-05-07T10:45:25;3.17;;;2.70;;
22955;SDS011;40888;48.148;11.526;2023-05-07T10:50:44;2.60;;;2.38;;
22955;SDS011;40888;48.148;11.526;2023-05-07T10:55:51;3.30;;;2.00;;
22955;SDS011;40888;48.148;11.526;2023-05-07T10:58:37;3.05;;;1.83;;
22955;SDS011;40888;48.148;11.526;2023-05-07T11:01:03;2.53;;;2.03;;
22955;SDS011;40888;48.148;11.526;2023-05-07T11:03:29;2.70;;;2.33;;
22955;SDS011;40888;48.148;11.526;2023-05-07T11:11:19;5.28;;;2.70;;
22955;SDS011;40888;48.148;11.526;2023-05-07T11:14:06;2.20;;;2.00;;
22955;SDS011;40888;48.148;11.526;2023-05-07T11:16:31;2.80;;;2.42;;
22955;SDS011;40888;48.148;11.526;2023-05-07T11:18:58;2.67;;;1.98;;
22955;SDS011;40888;48.148;11.526;2023-05-07T11:24:03;4.30;;;2.42;;
22955;SDS011;40888;48.148;11.526;2023-05-07T11:26:47;4.28;;;2.60;;
22955;SDS011;40888;48.148;11.526;2023-05-07T11:29:21;4.45;;;2.60;;
22955;SDS011;40888;48.148;11.526;2023-05-07T11:31:51;3.75;;;2.17;;
22955;SDS011;40888;48.148;11.526;2023-05-07T11:34:21;3.10;;;2.28;;
22955;SDS011;40888;48.148;11.526;2023-05-07T11:36:48;2.50;;;2.30;;
22955;SDS011;40888;48.148;11.526;2023-05-07T11:39:27;4.00;;;2.17;;
22955;SDS011;40888;48.148;11.526;2023-05-07T11:41:56;3.40;;;2.30;;
22955;SDS011;40888;48.148;11.526;2023-05-07T11:44:23;2.80;;;2.60;;
22955;SDS011;40888;48.148;11.526;2023-05-07T11:46:49;2.45;;;2.20;;
22955;SDS011;40888;48.148;11.526;2023-05-07T11:49:15;5.22;;;2.70;;
22955;SDS011;40888;48.148;11.526;2023-05-07T11:51:41;4.80;;;2.22;;
22955;SDS011;40888;48.148;11.526;2023-05-07T11:54:09;4.78;;;2.22;;
22955;SDS011;40888;48.148;11.526;2023-05-07T11:56:36;2.38;;;2.10;;
22955;SDS011;40888;48.148;11.526;2023-05-07T11:59:03;4.03;;;2.42;;
22955;SDS011;40888;48.148;11.526;2023-05-07T12:01:28;5.35;;;2.60;;
22955;SDS011;40888;48.148;11.526;2023-05-07T12:03:54;5.53;;;2.42;;
22955;SDS011;40888;48.148;11.526;2023-05-07T12:06:20;5.38;;;2.78;;
22955;SDS011;40888;48.148;11.526;2023-05-07T12:08:46;3.55;;;2.78;;
22955;SDS011;40888;48.148;11.526;2023-05-07T12:11:16;2.75;;;2.55;;
22955;SDS011;40888;48.148;11.526;2023-05-07T12:13:47;4.40;;;2.35;;
22955;SDS011;40888;48.148;11.526;2023-05-07T12:16:18;2.60;;;2.38;;
22955;SDS011;40888;48.148;11.526;2023-05-07T12:18:44;3.53;;;2.70;;
22955;SDS011;40888;48.148;11.526;2023-05-07T12:21:11;3.15;;;2.50;;
22955;SDS011;40888;48.148;11.526;2023-05-07T12:23:37;3.58;;;2.60;;
22955;SDS011;40888;48.148;11.526;2023-05-07T12:26:05;2.72;;;2.42;;
22955;SDS011;40888;48.148;11.526;2023-05-07T12:28:31;1.90;;;1.80;;
22955;SDS011;40888;48.148;11.526;2023-05-07T12:31:02;4.50;;;2.40;;
22955;SDS011;40888;48.148;11.526;2023-05-07T12:33:28;4.22;;;1.92;;
22955;SDS011;40888;48.148;11.526;2023-05-07T12:35:56;3.55;;;1.95;;
22955;SDS011;40888;48.148;11.526;2023-05-07T12:38:22;3.22;;;2.20;;
22955;SDS011;40888;48.148;11.526;2023-05-07T12:40:48;3.63;;;2.15;;
22955;SDS011;40888;48.148;11.526;2023-05-07T12:43:21;2.80;;;2.38;;
22955;SDS011;40888;48.148;11.526;2023-05-07T12:45:52;2.78;;;2.08;;
22955;SDS011;40888;48.148;11.526;2023-05-07T12:48:20;2.80;;;2.50;;
22955;SDS011;40888;48.148;11.526;2023-05-07T12:50:49;3.28;;;2.13;;
22955;SDS011;40888;48.148;11.526;2023-05-07T12:53:17;2.95;;;2.53;;
22955;SDS011;40888;48.148;11.526;2023-05-07T12:55:47;3.17;;;2.25;;
22955;SDS011;40888;48.148;11.526;2023-05-07T12:58:36;2.45;;;2.17;;
22955;SDS011;40888;48.148;11.526;2023-05-07T13:01:04;2.58;;;2.08;;
22955;SDS011;40888;48.148;11.526;2023-05-07T13:03:32;2.42;;;1.85;;
22955;SDS011;40888;48.148;11.526;2023-05-07T13:06:00;2.38;;;2.17;;
22955;SDS011;40888;48.148;11.526;2023-05-07T13:10:59;2.92;;;2.30;;
22955;SDS011;40888;48.148;11.526;2023-05-07T13:13:29;1.98;;;1.73;;
22955;SDS011;40888;48.148;11.526;2023-05-07T13:15:56;2.28;;;2.05;;
22955;SDS011;40888;48.148;11.526;2023-05-07T13:18:24;2.30;;;1.80;;
22955;SDS011;40888;48.148;11.526;2023-05-07T13:20:51;3.42;;;1.70;;
22955;SDS011;40888;48.148;11.526;2023-05-07T13:23:17;3.90;;;1.85;;
22955;SDS011;40888;48.148;11.526;2023-05-07T13:25:43;1.92;;;1.83;;
22955;SDS011;40888;48.148;11.526;2023-05-07T13:28:08;3.72;;;2.17;;
22955;SDS011;40888;48.148;11.526;2023-05-07T13:30:34;1.65;;;1.50;;
22955;SDS011;40888;48.148;11.526;2023-05-07T13:33:00;3.03;;;2.00;;
22955;SDS011;40888;48.148;11.526;2023-05-07T13:35:26;2.30;;;2.10;;
22955;SDS011;40888;48.148;11.526;2023-05-07T13:37:52;2.10;;;1.90;;
22955;SDS011;40888;48.148;11.526;2023-05-07T13:40:19;2.45;;;2.25;;
22955;SDS011;40888;48.148;11.526;2023-05-07T13:42:46;5.00;;;2.38;;
22955;SDS011;40888;48.148;11.526;2023-05-07T13:45:11;4.28;;;2.13;;
22955;SDS011;40888;48.148;11.526;2023-05-07T13:47:41;2.00;;;1.50;;
22955;SDS011;40888;48.148;11.526;2023-05-07T13:50:08;2.13;;;1.88;;
22955;SDS011;40888;48.148;11.526;2023-05-07T13:52:34;3.03;;;1.90;;
22955;SDS011;40888;48.148;11.526;2023-05-07T13:55:00;3.70;;;1.70;;
22955;SDS011;40888;48.148;11.526;2023-05-07T13:57:26;2.25;;;1.80;;
22955;SDS011;40888;48.148;11.526;2023-05-07T13:59:52;3.00;;;1.60;;
22955;SDS011;40888;48.148;11.526;2023-05-07T14:02:17;2.28;;;1.85;;
22955;SDS011;40888;48.148;11.526;2023-05-07T14:04:43;1.80;;;1.70;;
22955;SDS011;40888;48.148;11.526;2023-05-07T14:07:10;1.75;;;1.65;;
22955;SDS011;40888;48.148;11.526;2023-05-07T14:09:35;3.10;;;1.65;;
22955;SDS011;40888;48.148;11.526;2023-05-07T14:12:01;3.88;;;1.77;;
22955;SDS011;40888;48.148;11.526;2023-05-07T14:14:27;6.70;;;2.10;;
22955;SDS011;40888;48.148;11.526;2023-05-07T14:16:53;2.00;;;1.88;;
22955;SDS011;40888;48.148;11.526;2023-05-07T14:19:18;3.28;;;2.15;;
22955;SDS011;40888;48.148;11.526;2023-05-07T14:21:44;2.42;;;1.75;;
22955;SDS011;40888;48.148;11.526;2023-05-07T14:24:10;2.65;;;2.45;;
22955;SDS011;40888;48.148;11.526;2023-05-07T14:26:36;3.08;;;1.75;;
22955;SDS011;40888;48.148;11.526;2023-05-07T14:29:02;2.10;;;1.90;;
22955;SDS011;40888;48.148;11.526;2023-05-07T14:31:28;3.78;;;2.47;;
22955;SDS011;40888;48.148;11.526;2023-05-07T14:33:54;3.25;;;1.83;;
22955;SDS011;40888;48.148;11.526;2023-05-07T14:36:20;1.90;;;1.80;;
22955;SDS011;40888;48.148;11.526;2023-05-07T14:38:46;2.25;;;2.05;;
22955;SDS011;40888;48.148;11.526;2023-05-07T14:41:12;3.05;;;1.88;;
22955;SDS011;40888;48.148;11.526;2023-05-07T14:43:38;3.50;;;2.65;;
22955;SDS011;40888;48.148;11.526;2023-05-07T14:46:04;5.35;;;2.90;;
22955;SDS011;40888;48.148;11.526;2023-05-07T14:48:29;4.13;;;2.55;;
22955;SDS011;40888;48.148;11.526;2023-05-07T14:50:55;6.80;;;2.20;;
22955;SDS011;40888;48.148;11.526;2023-05-07T14:53:21;3.20;;;2.90;;
22955;SDS011;40888;48.148;11.526;2023-05-07T14:55:47;4.60;;;3.05;;
22955;SDS011;40888;48.148;11.526;2023-05-07T14:58:13;2.38;;;2.17;;
22955;SDS011;40888;48.148;11.526;2023-05-07T15:00:39;4.40;;;2.95;;
22955;SDS011;40888;48.148;11.526;2023-05-07T15:03:09;2.83;;;2.63;;
22955;SDS011;40888;48.148;11.526;2023-05-07T15:05:35;3.63;;;2.30;;